sensor_id;sensor_type;location;lat;lon;timestamp;temperature;humidity
16968;DHT22;64862;54.398;10.126;2024-03-02T00:05:07;9.00;99.90
16968;DHT22;64862;54.398;10.126;2024-03-02T00:15:28;8.90;99.90
16968;DHT22;64862;54.398;10.126;2024-03-02T00:25:40;8.90;99.90
16968;DHT22;64862;54.398;10.126;2024-03-02T00:35:45;8.90;99.90
16968;DHT22;64862;54.398;10.126;2024-03-02T00:45:48;8.90;99.90
16968;DHT22;64862;54.398;10.126;2024-03-02T00:55:51;8.90;99.90
16968;DHT22;64862;54.398;10.126;2024-03-02T01:05:54;9.00;99.90
16968;DHT22;64862;54.398;10.126;2024-03-02T01:15:58;8.90;99.90
16968;DHT22;64862;54.398;10.126;2024-03-02T01:26:00;8.90;99.90
16968;DHT22;64862;54.398;10.126;2024-03-02T01:36:04;8.90;99.90
16968;DHT22;64862;54.398;10.126;2024-03-02T01:46:06;8.90;99.90
16968;DHT22;64862;54.398;10.126;2024-03-02T01:56:10;8.80;99.90
16968;DHT22;64862;54.398;10.126;2024-03-02T02:06:12;8.80;99.90
16968;DHT22;64862;54.398;10.126;2024-03-02T02:16:15;8.80;99.90
16968;DHT22;64862;54.398;10.126;2024-03-02T02:26:19;8.80;99.90
16968;DHT22;64862;54.398;10.126;2024-03-02T02:36:21;8.80;99.90
16968;DHT22;64862;54.398;10.126;2024-03-02T02:46:24;8.70;99.90
16968;DHT22;64862;54.398;10.126;2024-03-02T02:56:26;8.60;99.90
16968;DHT22;64862;54.398;10.126;2024-03-02T03:06:30;8.70;99.90
16968;DHT22;64862;54.398;10.126;2024-03-02T03:16:32;8.60;99.90
16968;DHT22;64862;54.398;10.126;2024-03-02T03:26:37;8.50;99.90
16968;DHT22;64862;54.398;10.126;2024-03-02T03:36:39;8.50;99.90
16968;DHT22;64862;54.398;10.126;2024-03-02T03:46:42;8.50;99.90
16968;DHT22;64862;54.398;10.126;2024-03-02T03:56:44;8.50;99.90
16968;DHT22;64862;54.398;10.126;2024-03-02T04:06:48;8.40;99.90
16968;DHT22;64862;54.398;10.126;2024-03-02T04:16:50;8.50;99.90
16968;DHT22;64862;54.398;10.126;2024-03-02T04:26:53;8.40;99.90
16968;DHT22;64862;54.398;10.126;2024-03-02T04:36:55;8.40;99.90
16968;DHT22;64862;54.398;10.126;2024-03-02T04:46:59;8.40;99.90
16968;DHT22;64862;54.398;10.126;2024-03-02T04:57:00;8.40;99.90
16968;DHT22;64862;54.398;10.126;2024-03-02T05:07:04;8.30;99.90
16968;DHT22;64862;54.398;10.126;2024-03-02T05:17:06;8.40;99.90
16968;DHT22;64862;54.398;10.126;2024-03-02T05:27:10;8.40;99.90
16968;DHT22;64862;54.398;10.126;2024-03-02T05:37:12;8.40;99.90
16968;DHT22;64862;54.398;10.126;2024-03-02T05:47:15;8.40;99.90
16968;DHT22;64862;54.398;10.126;2024-03-02T05:57:17;8.40;99.90
16968;DHT22;64862;54.398;10.126;2024-03-02T06:07:40;8.40;99.90
16968;DHT22;64862;54.398;10.126;2024-03-02T06:17:45;8.40;99.90
16968;DHT22;64862;54.398;10.126;2024-03-02T06:27:49;8.40;99.90
16968;DHT22;64862;54.398;10.126;2024-03-02T06:37:51;8.30;99.90
16968;DHT22;64862;54.398;10.126;2024-03-02T06:47:54;8.30;99.90
16968;DHT22;64862;54.398;10.126;2024-03-02T06:57:57;8.40;99.90
16968;DHT22;64862;54.398;10.126;2024-03-02T07:08:00;8.40;99.90
16968;DHT22;64862;54.398;10.126;2024-03-02T07:18:04;8.40;99.90
16968;DHT22;64862;54.398;10.126;2024-03-02T07:28:07;8.40;99.90
16968;DHT22;64862;54.398;10.126;2024-03-02T07:38:09;8.50;99.90
16968;DHT22;64862;54.398;10.126;2024-03-02T07:48:14;8.50;99.90
16968;DHT22;64862;54.398;10.126;2024-03-02T07:58:17;8.60;99.90
16968;DHT22;64862;54.398;10.126;2024-03-02T08:08:21;8.70;99.90
16968;DHT22;64862;54.398;10.126;2024-03-02T08:18:23;8.80;99.90
16968;DHT22;64862;54.398;10.126;2024-03-02T08:28:27;8.90;99.90
16968;DHT22;64862;54.398;10.126;2024-03-02T08:38:29;9.00;99.90
16968;DHT22;64862;54.398;10.126;2024-03-02T08:48:33;9.10;99.90
16968;DHT22;64862;54.398;10.126;2024-03-02T08:58:35;9.20;99.90
16968;DHT22;64862;54.398;10.126;2024-03-02T09:08:39;9.30;99.90
16968;DHT22;64862;54.398;10.126;2024-03-02T09:18:41;9.30;99.90
16968;DHT22;64862;54.398;10.126;2024-03-02T09:28:44;9.50;99.90
16968;DHT22;64862;54.398;10.126;2024-03-02T09:38:46;9.70;99.90
16968;DHT22;64862;54.398;10.126;2024-03-02T09:48:50;9.90;99.90
16968;DHT22;64862;54.398;10.126;2024-03-02T09:58:52;10.00;99.90
16968;DHT22;64862;54.398;10.126;2024-03-02T10:08:56;10.10;99.90
16968;DHT22;64862;54.398;10.126;2024-03-02T10:18:58;10.20;99.90
16968;DHT22;64862;54.398;10.126;2024-03-02T10:29:01;10.20;99.90
16968;DHT22;64862;54.398;10.126;2024-03-02T10:39:04;10.30;99.90
16968;DHT22;64862;54.398;10.126;2024-03-02T10:49:08;10.30;99.90
16968;DHT22;64862;54.398;10.126;2024-03-02T10:59:16;10.50;99.90
16968;DHT22;64862;54.398;10.126;2024-03-02T11:09:22;10.60;99.90
16968;DHT22;64862;54.398;10.126;2024-03-02T11:19:25;10.80;99.90
16968;DHT22;64862;54.398;10.126;2024-03-02T11:29:49;10.90;99.90
16968;DHT22;64862;54.398;10.126;2024-03-02T11:39:51;11.10;99.90
16968;DHT22;64862;54.398;10.126;2024-03-02T11:49:55;11.20;99.90
16968;DHT22;64862;54.398;10.126;2024-03-02T11:59:57;11.20;99.90
16968;DHT22;64862;54.398;10.126;2024-03-02T12:10:02;11.30;99.90
16968;DHT22;64862;54.398;10.126;2024-03-02T12:20:05;11.40;99.90
16968;DHT22;64862;54.398;10.126;2024-03-02T12:30:10;11.40;99.90
16968;DHT22;64862;54.398;10.126;2024-03-02T12:40:16;11.40;99.90
16968;DHT22;64862;54.398;10.126;2024-03-02T12:50:20;11.30;99.90
16968;DHT22;64862;54.398;10.126;2024-03-02T13:00:23;11.10;99.90
16968;DHT22;64862;54.398;10.126;2024-03-02T13:10:26;11.20;99.90
16968;DHT22;64862;54.398;10.126;2024-03-02T13:20:30;11.20;99.90
16968;DHT22;64862;54.398;10.126;2024-03-02T13:30:34;11.30;99.90
16968;DHT22;64862;54.398;10.126;2024-03-02T13:40:37;11.30;99.90
16968;DHT22;64862;54.398;10.126;2024-03-02T13:50:40;11.40;99.90
16968;DHT22;64862;54.398;10.126;2024-03-02T14:00:44;11.40;99.90
16968;DHT22;64862;54.398;10.126;2024-03-02T14:10:48;11.40;99.90
16968;DHT22;64862;54.398;10.126;2024-03-02T14:20:50;11.40;99.90
16968;DHT22;64862;54.398;10.126;2024-03-02T14:30:54;11.40;99.90
16968;DHT22;64862;54.398;10.126;2024-03-02T14:40:56;11.40;99.90
16968;DHT22;64862;54.398;10.126;2024-03-02T14:51:01;11.40;99.90
16968;DHT22;64862;54.398;10.126;2024-03-02T15:01:04;11.40;99.90
16968;DHT22;64862;54.398;10.126;2024-03-02T15:11:08;11.50;99.90
16968;DHT22;64862;54.398;10.126;2024-03-02T15:21:11;11.50;99.90
16968;DHT22;64862;54.398;10.126;2024-03-02T15:31:14;11.60;99.90
16968;DHT22;64862;54.398;10.126;2024-03-02T15:41:18;11.50;99.90
16968;DHT22;64862;54.398;10.126;2024-03-02T15:51:21;11.40;99.90
16968;DHT22;64862;54.398;10.126;2024-03-02T16:01:23;11.40;99.90
16968;DHT22;64862;54.398;10.126;2024-03-02T16:11:27;11.40;99.90
16968;DHT22;64862;54.398;10.126;2024-03-02T16:21:29;11.20;99.90
16968;DHT22;64862;54.398;10.126;2024-03-02T16:31:33;11.00;99.90
16968;DHT22;64862;54.398;10.126;2024-03-02T16:41:35;10.90;99.90
16968;DHT22;64862;54.398;10.126;2024-03-02T16:51:42;10.70;99.90
16968;DHT22;64862;54.398;10.126;2024-03-02T17:01:44;10.60;99.90
16968;DHT22;64862;54.398;10.126;2024-03-02T17:11:48;10.40;99.90
16968;DHT22;64862;54.398;10.126;2024-03-02T17:21:50;10.30;99.90
16968;DHT22;64862;54.398;10.126;2024-03-02T17:31:54;10.20;99.90
16968;DHT22;64862;54.398;10.126;2024-03-02T17:41:56;10.10;99.90
16968;DHT22;64862;54.398;10.126;2024-03-02T17:52:00;9.90;99.90
16968;DHT22;64862;54.398;10.126;2024-03-02T18:02:02;9.90;99.90
16968;DHT22;64862;54.398;10.126;2024-03-02T18:12:06;9.80;99.90
16968;DHT22;64862;54.398;10.126;2024-03-02T18:22:08;9.80;99.90
16968;DHT22;64862;54.398;10.126;2024-03-02T18:32:12;9.70;99.90
16968;DHT22;64862;54.398;10.126;2024-03-02T18:42:14;9.60;99.90
16968;DHT22;64862;54.398;10.126;2024-03-02T18:52:17;9.50;99.90
16968;DHT22;64862;54.398;10.126;2024-03-02T19:02:20;9.40;99.90
16968;DHT22;64862;54.398;10.126;2024-03-02T19:12:24;9.20;99.90
16968;DHT22;64862;54.398;10.126;2024-03-02T19:22:26;9.10;99.90
16968;DHT22;64862;54.398;10.126;2024-03-02T19:32:30;8.90;99.90
16968;DHT22;64862;54.398;10.126;2024-03-02T19:42:32;8.90;99.90
16968;DHT22;64862;54.398;10.126;2024-03-02T19:52:37;9.00;99.90
16968;DHT22;64862;54.398;10.126;2024-03-02T20:02:39;8.90;99.90
16968;DHT22;64862;54.398;10.126;2024-03-02T20:12:42;9.00;99.90
16968;DHT22;64862;54.398;10.126;2024-03-02T20:22:44;8.90;99.90
16968;DHT22;64862;54.398;10.126;2024-03-02T20:32:48;9.00;99.90
16968;DHT22;64862;54.398;10.126;2024-03-02T20:42:50;8.90;99.90
16968;DHT22;64862;54.398;10.126;2024-03-02T20:52:53;8.80;99.90
16968;DHT22;64862;54.398;10.126;2024-03-02T21:02:57;8.60;99.90
16968;DHT22;64862;54.398;10.126;2024-03-02T21:13:00;8.30;99.90
16968;DHT22;64862;54.398;10.126;2024-03-02T21:23:03;8.20;99.90
16968;DHT22;64862;54.398;10.126;2024-03-02T21:33:06;8.00;99.90
16968;DHT22;64862;54.398;10.126;2024-03-02T21:43:08;7.90;99.90
16968;DHT22;64862;54.398;10.126;2024-03-02T21:53:12;8.00;99.90
16968;DHT22;64862;54.398;10.126;2024-03-02T22:03:14;8.00;99.90
16968;DHT22;64862;54.398;10.126;2024-03-02T22:13:17;8.10;99.90
16968;DHT22;64862;54.398;10.126;2024-03-02T22:23:19;8.20;99.90
16968;DHT22;64862;54.398;10.126;2024-03-02T22:33:23;8.30;99.90
16968;DHT22;64862;54.398;10.126;2024-03-02T22:43:25;8.30;99.90
16968;DHT22;64862;54.398;10.126;2024-03-02T22:53:29;8.10;99.90
16968;DHT22;64862;54.398;10.126;2024-03-02T23:03:31;8.10;99.90
16968;DHT22;64862;54.398;10.126;2024-03-02T23:13:35;8.30;99.90
16968;DHT22;64862;54.398;10.126;2024-03-02T23:23:37;8.30;99.90
16968;DHT22;64862;54.398;10.126;2024-03-02T23:33:41;8.40;99.90
16968;DHT22;64862;54.398;10.126;2024-03-02T23:43:43;8.50;99.90
16968;DHT22;64862;54.398;10.126;2024-03-02T23:53:46;8.50;99.90
